sensor_id;sensor_type;location;lat;lon;timestamp;P1;durP1;ratioP1;P2;durP2;ratioP2
78783;SDS011;68127;51.050;14.084;2023-05-27T00:01:57;15.80;;;3.83;;
78783;SDS011;68127;51.050;14.084;2023-05-27T00:04:22;12.00;;;4.18;;
78783;SDS011;68127;51.050;14.084;2023-05-27T00:06:47;10.73;;;3.55;;
78783;SDS011;68127;51.050;14.084;2023-05-27T00:09:12;15.30;;;3.38;;
78783;SDS011;68127;51.050;14.084;2023-05-27T00:11:38;13.52;;;4.20;;
78783;SDS011;68127;51.050;14.084;2023-05-27T00:14:04;18.02;;;4.55;;
78783;SDS011;68127;51.050;14.084;2023-05-27T00:16:29;15.30;;;3.47;;
78783;SDS011;68127;51.050;14.084;2023-05-27T00:18:56;13.85;;;4.60;;
78783;SDS011;68127;51.050;14.084;2023-05-27T00:21:21;11.20;;;3.83;;
78783;SDS011;68127;51.050;14.084;2023-05-27T00:23:47;12.38;;;3.85;;
78783;SDS011;68127;51.050;14.084;2023-05-27T00:26:12;14.77;;;3.65;;
78783;SDS011;68127;51.050;14.084;2023-05-27T00:28:38;14.45;;;3.92;;
78783;SDS011;68127;51.050;14.084;2023-05-27T00:31:05;13.85;;;4.45;;
78783;SDS011;68127;51.050;14.084;2023-05-27T00:33:30;15.73;;;4.45;;
78783;SDS011;68127;51.050;14.084;2023-05-27T00:35:55;13.10;;;3.97;;
78783;SDS011;68127;51.050;14.084;2023-05-27T00:38:20;11.05;;;3.45;;
78783;SDS011;68127;51.050;14.084;2023-05-27T00:40:46;12.27;;;3.90;;
78783;SDS011;68127;51.050;14.084;2023-05-27T00:43:11;12.75;;;3.65;;
78783;SDS011;68127;51.050;14.084;2023-05-27T00:45:36;14.25;;;4.35;;
78783;SDS011;68127;51.050;14.084;2023-05-27T00:48:02;11.93;;;3.80;;
78783;SDS011;68127;51.050;14.084;2023-05-27T00:50:28;17.98;;;4.53;;
78783;SDS011;68127;51.050;14.084;2023-05-27T00:52:54;16.40;;;3.90;;
78783;SDS011;68127;51.050;14.084;2023-05-27T00:55:20;11.98;;;3.83;;
78783;SDS011;68127;51.050;14.084;2023-05-27T00:57:46;12.55;;;3.67;;
78783;SDS011;68127;51.050;14.084;2023-05-27T01:00:12;15.45;;;3.65;;
78783;SDS011;68127;51.050;14.084;2023-05-27T01:02:38;13.45;;;4.00;;
78783;SDS011;68127;51.050;14.084;2023-05-27T01:05:08;15.98;;;5.25;;
78783;SDS011;68127;51.050;14.084;2023-05-27T01:07:39;12.85;;;4.18;;
78783;SDS011;68127;51.050;14.084;2023-05-27T01:10:31;16.33;;;4.45;;
78783;SDS011;68127;51.050;14.084;2023-05-27T01:13:01;17.25;;;3.90;;
78783;SDS011;68127;51.050;14.084;2023-05-27T01:15:31;14.20;;;3.92;;
78783;SDS011;68127;51.050;14.084;2023-05-27T01:17:57;14.75;;;4.15;;
78783;SDS011;68127;51.050;14.084;2023-05-27T01:20:27;13.52;;;4.40;;
78783;SDS011;68127;51.050;14.084;2023-05-27T01:22:54;11.38;;;3.78;;
78783;SDS011;68127;51.050;14.084;2023-05-27T01:25:19;14.50;;;4.05;;
78783;SDS011;68127;51.050;14.084;2023-05-27T01:27:45;15.70;;;3.90;;
78783;SDS011;68127;51.050;14.084;2023-05-27T01:30:10;14.10;;;3.90;;
78783;SDS011;68127;51.050;14.084;2023-05-27T01:32:39;17.45;;;4.85;;
78783;SDS011;68127;51.050;14.084;2023-05-27T01:35:17;13.77;;;4.30;;
78783;SDS011;68127;51.050;14.084;2023-05-27T01:40:15;12.23;;;3.75;;
78783;SDS011;68127;51.050;14.084;2023-05-27T01:42:40;12.48;;;4.15;;
78783;SDS011;68127;51.050;14.084;2023-05-27T01:45:07;17.65;;;4.50;;
78783;SDS011;68127;51.050;14.084;2023-05-27T01:47:33;15.52;;;4.07;;
78783;SDS011;68127;51.050;14.084;2023-05-27T01:49:59;11.43;;;3.80;;
78783;SDS011;68127;51.050;14.084;2023-05-27T01:52:25;12.82;;;4.07;;
78783;SDS011;68127;51.050;14.084;2023-05-27T01:54:50;11.70;;;4.25;;
78783;SDS011;68127;51.050;14.084;2023-05-27T01:57:15;13.77;;;4.05;;
78783;SDS011;68127;51.050;14.084;2023-05-27T01:59:41;13.70;;;3.88;;
78783;SDS011;68127;51.050;14.084;2023-05-27T02:02:06;12.95;;;3.30;;
78783;SDS011;68127;51.050;14.084;2023-05-27T02:04:32;11.85;;;3.60;;
78783;SDS011;68127;51.050;14.084;2023-05-27T02:06:57;14.95;;;4.45;;
78783;SDS011;68127;51.050;14.084;2023-05-27T02:09:22;14.85;;;4.47;;
78783;SDS011;68127;51.050;14.084;2023-05-27T02:11:47;15.73;;;4.63;;
78783;SDS011;68127;51.050;14.084;2023-05-27T02:14:13;12.13;;;4.00;;
78783;SDS011;68127;51.050;14.084;2023-05-27T02:16:38;14.35;;;4.20;;
78783;SDS011;68127;51.050;14.084;2023-05-27T02:19:04;16.75;;;4.25;;
78783;SDS011;68127;51.050;14.084;2023-05-27T02:21:29;12.63;;;3.85;;
78783;SDS011;68127;51.050;14.084;2023-05-27T02:23:55;13.95;;;4.32;;
78783;SDS011;68127;51.050;14.084;2023-05-27T02:26:20;12.82;;;4.28;;
78783;SDS011;68127;51.050;14.084;2023-05-27T02:28:46;17.23;;;3.75;;
78783;SDS011;68127;51.050;14.084;2023-05-27T02:31:11;15.35;;;3.70;;
78783;SDS011;68127;51.050;14.084;2023-05-27T02:33:37;11.65;;;3.92;;
78783;SDS011;68127;51.050;14.084;2023-05-27T02:36:02;12.90;;;3.92;;
78783;SDS011;68127;51.050;14.084;2023-05-27T02:38:27;14.50;;;4.03;;
78783;SDS011;68127;51.050;14.084;2023-05-27T02:40:53;13.23;;;4.57;;
78783;SDS011;68127;51.050;14.084;2023-05-27T02:43:18;15.40;;;3.75;;
78783;SDS011;68127;51.050;14.084;2023-05-27T02:45:43;14.27;;;4.35;;
78783;SDS011;68127;51.050;14.084;2023-05-27T02:48:08;13.68;;;4.15;;
78783;SDS011;68127;51.050;14.084;2023-05-27T02:50:34;9.48;;;3.72;;
78783;SDS011;68127;51.050;14.084;2023-05-27T02:52:59;18.42;;;4.80;;
78783;SDS011;68127;51.050;14.084;2023-05-27T02:55:24;18.33;;;4.40;;
78783;SDS011;68127;51.050;14.084;2023-05-27T02:57:50;13.32;;;4.10;;
78783;SDS011;68127;51.050;14.084;2023-05-27T03:00:15;13.23;;;3.95;;
78783;SDS011;68127;51.050;14.084;2023-05-27T03:02:41;13.60;;;4.28;;
78783;SDS011;68127;51.050;14.084;2023-05-27T03:05:06;14.50;;;4.20;;
78783;SDS011;68127;51.050;14.084;2023-05-27T03:07:31;17.08;;;5.18;;
78783;SDS011;68127;51.050;14.084;2023-05-27T03:09:57;14.43;;;4.88;;
78783;SDS011;68127;51.050;14.084;2023-05-27T03:12:22;15.90;;;4.63;;
78783;SDS011;68127;51.050;14.084;2023-05-27T03:14:48;16.33;;;3.95;;
78783;SDS011;68127;51.050;14.084;2023-05-27T03:17:14;12.45;;;4.13;;
78783;SDS011;68127;51.050;14.084;2023-05-27T03:19:39;15.20;;;4.22;;
78783;SDS011;68127;51.050;14.084;2023-05-27T03:22:04;13.98;;;3.72;;
78783;SDS011;68127;51.050;14.084;2023-05-27T03:24:32;12.55;;;4.30;;
78783;SDS011;68127;51.050;14.084;2023-05-27T03:26:58;14.25;;;4.40;;
78783;SDS011;68127;51.050;14.084;2023-05-27T03:29:23;12.13;;;4.22;;
78783;SDS011;68127;51.050;14.084;2023-05-27T03:31:49;13.80;;;3.92;;
78783;SDS011;68127;51.050;14.084;2023-05-27T03:34:14;12.48;;;4.18;;
78783;SDS011;68127;51.050;14.084;2023-05-27T03:36:39;17.38;;;4.80;;
78783;SDS011;68127;51.050;14.084;2023-05-27T03:39:04;14.98;;;4.40;;
78783;SDS011;68127;51.050;14.084;2023-05-27T03:41:30;11.43;;;4.30;;
78783;SDS011;68127;51.050;14.084;2023-05-27T03:43:56;13.73;;;4.53;;
78783;SDS011;68127;51.050;14.084;2023-05-27T03:46:21;12.80;;;3.60;;
78783;SDS011;68127;51.050;14.084;2023-05-27T03:48:47;11.40;;;4.53;;
78783;SDS011;68127;51.050;14.084;2023-05-27T03:51:12;15.50;;;4.60;;
78783;SDS011;68127;51.050;14.084;2023-05-27T03:53:37;14.32;;;4.57;;
78783;SDS011;68127;51.050;14.084;2023-05-27T03:56:02;15.50;;;4.13;;
78783;SDS011;68127;51.050;14.084;2023-05-27T03:58:28;12.50;;;4.15;;
78783;SDS011;68127;51.050;14.084;2023-05-27T04:00:53;14.15;;;4.93;;
78783;SDS011;68127;51.050;14.084;2023-05-27T04:03:20;15.10;;;5.28;;
78783;SDS011;68127;51.050;14.084;2023-05-27T04:05:45;14.57;;;4.18;;
78783;SDS011;68127;51.050;14.084;2023-05-27T04:08:10;13.20;;;4.65;;
78783;SDS011;68127;51.050;14.084;2023-05-27T04:10:38;13.80;;;4.18;;
78783;SDS011;68127;51.050;14.084;2023-05-27T04:13:03;18.15;;;4.82;;
78783;SDS011;68127;51.050;14.084;2023-05-27T04:15:28;15.13;;;4.80;;
78783;SDS011;68127;51.050;14.084;2023-05-27T04:17:54;11.52;;;4.20;;
78783;SDS011;68127;51.050;14.084;2023-05-27T04:20:19;14.35;;;3.90;;
78783;SDS011;68127;51.050;14.084;2023-05-27T04:22:44;13.70;;;4.50;;
78783;SDS011;68127;51.050;14.084;2023-05-27T04:25:10;13.20;;;3.88;;
78783;SDS011;68127;51.050;14.084;2023-05-27T04:27:35;10.70;;;4.00;;
78783;SDS011;68127;51.050;14.084;2023-05-27T04:30:01;12.20;;;4.30;;
78783;SDS011;68127;51.050;14.084;2023-05-27T04:32:27;15.48;;;4.28;;
78783;SDS011;68127;51.050;14.084;2023-05-27T04:34:53;16.23;;;4.53;;
78783;SDS011;68127;51.050;14.084;2023-05-27T04:37:18;10.40;;;4.20;;
78783;SDS011;68127;51.050;14.084;2023-05-27T04:39:45;14.20;;;4.78;;
78783;SDS011;68127;51.050;14.084;2023-05-27T04:42:13;14.13;;;4.35;;
78783;SDS011;68127;51.050;14.084;2023-05-27T04:44:40;13.80;;;4.60;;
78783;SDS011;68127;51.050;14.084;2023-05-27T04:47:05;14.75;;;4.35;;
78783;SDS011;68127;51.050;14.084;2023-05-27T04:49:31;12.75;;;4.90;;
78783;SDS011;68127;51.050;14.084;2023-05-27T04:51:56;13.27;;;4.25;;
78783;SDS011;68127;51.050;14.084;2023-05-27T04:54:22;19.33;;;6.35;;
78783;SDS011;68127;51.050;14.084;2023-05-27T04:56:47;13.15;;;4.15;;
78783;SDS011;68127;51.050;14.084;2023-05-27T04:59:16;12.80;;;3.78;;
78783;SDS011;68127;51.050;14.084;2023-05-27T05:01:43;12.82;;;4.15;;
78783;SDS011;68127;51.050;14.084;2023-05-27T05:04:34;12.95;;;5.20;;
78783;SDS011;68127;51.050;14.084;2023-05-27T05:06:59;12.63;;;4.13;;
78783;SDS011;68127;51.050;14.084;2023-05-27T05:09:24;12.70;;;4.43;;
78783;SDS011;68127;51.050;14.084;2023-05-27T05:11:50;15.40;;;4.78;;
78783;SDS011;68127;51.050;14.084;2023-05-27T05:14:15;18.98;;;4.80;;
78783;SDS011;68127;51.050;14.084;2023-05-27T05:16:40;12.95;;;4.57;;
78783;SDS011;68127;51.050;14.084;2023-05-27T05:19:05;13.70;;;4.20;;
78783;SDS011;68127;51.050;14.084;2023-05-27T05:21:31;10.55;;;4.18;;
78783;SDS011;68127;51.050;14.084;2023-05-27T05:23:56;15.55;;;3.80;;
78783;SDS011;68127;51.050;14.084;2023-05-27T05:26:21;13.55;;;4.30;;
78783;SDS011;68127;51.050;14.084;2023-05-27T05:28:46;15.93;;;5.30;;
78783;SDS011;68127;51.050;14.084;2023-05-27T05:31:12;13.52;;;4.30;;
78783;SDS011;68127;51.050;14.084;2023-05-27T05:33:37;10.63;;;3.90;;
78783;SDS011;68127;51.050;14.084;2023-05-27T05:36:02;17.02;;;5.22;;
78783;SDS011;68127;51.050;14.084;2023-05-27T05:38:27;15.93;;;4.32;;
78783;SDS011;68127;51.050;14.084;2023-05-27T05:40:54;10.18;;;4.13;;
78783;SDS011;68127;51.050;14.084;2023-05-27T05:43:20;16.63;;;4.63;;
78783;SDS011;68127;51.050;14.084;2023-05-27T05:45:45;13.27;;;4.68;;
78783;SDS011;68127;51.050;14.084;2023-05-27T05:48:11;16.55;;;4.45;;
78783;SDS011;68127;51.050;14.084;2023-05-27T05:50:36;14.15;;;4.63;;
78783;SDS011;68127;51.050;14.084;2023-05-27T05:53:01;11.13;;;4.30;;
78783;SDS011;68127;51.050;14.084;2023-05-27T05:55:26;13.52;;;4.15;;
78783;SDS011;68127;51.050;14.084;2023-05-27T05:57:52;10.77;;;4.30;;
78783;SDS011;68127;51.050;14.084;2023-05-27T06:00:17;12.57;;;4.25;;
78783;SDS011;68127;51.050;14.084;2023-05-27T06:02:43;15.15;;;4.75;;
78783;SDS011;68127;51.050;14.084;2023-05-27T06:05:08;14.63;;;3.85;;
78783;SDS011;68127;51.050;14.084;2023-05-27T06:07:34;12.98;;;3.70;;
78783;SDS011;68127;51.050;14.084;2023-05-27T06:09:59;11.82;;;3.83;;
78783;SDS011;68127;51.050;14.084;2023-05-27T06:12:24;16.20;;;4.03;;
78783;SDS011;68127;51.050;14.084;2023-05-27T06:14:50;12.82;;;3.58;;
78783;SDS011;68127;51.050;14.084;2023-05-27T06:17:15;12.85;;;3.70;;
78783;SDS011;68127;51.050;14.084;2023-05-27T06:19:40;13.68;;;4.43;;
78783;SDS011;68127;51.050;14.084;2023-05-27T06:22:06;9.77;;;3.95;;
78783;SDS011;68127;51.050;14.084;2023-05-27T06:24:32;13.18;;;3.38;;
78783;SDS011;68127;51.050;14.084;2023-05-27T06:26:57;13.98;;;3.80;;
78783;SDS011;68127;51.050;14.084;2023-05-27T06:29:22;11.65;;;3.45;;
78783;SDS011;68127;51.050;14.084;2023-05-27T06:31:48;13.38;;;3.38;;
78783;SDS011;68127;51.050;14.084;2023-05-27T06:34:14;14.13;;;3.60;;
78783;SDS011;68127;51.050;14.084;2023-05-27T06:36:40;12.02;;;3.60;;
78783;SDS011;68127;51.050;14.084;2023-05-27T06:39:06;11.48;;;3.30;;
78783;SDS011;68127;51.050;14.084;2023-05-27T06:41:31;12.50;;;3.00;;
78783;SDS011;68127;51.050;14.084;2023-05-27T06:43:56;45.88;;;10.52;;
78783;SDS011;68127;51.050;14.084;2023-05-27T06:46:32;25.98;;;6.80;;
78783;SDS011;68127;51.050;14.084;2023-05-27T06:48:57;28.55;;;8.13;;
78783;SDS011;68127;51.050;14.084;2023-05-27T06:51:22;37.50;;;8.07;;
78783;SDS011;68127;51.050;14.084;2023-05-27T06:53:48;18.70;;;4.85;;
78783;SDS011;68127;51.050;14.084;2023-05-27T06:56:13;38.75;;;8.45;;
78783;SDS011;68127;51.050;14.084;2023-05-27T06:58:38;20.45;;;5.20;;
78783;SDS011;68127;51.050;14.084;2023-05-27T07:01:04;22.15;;;5.85;;
78783;SDS011;68127;51.050;14.084;2023-05-27T07:03:29;29.02;;;8.27;;
78783;SDS011;68127;51.050;14.084;2023-05-27T07:05:54;59.75;;;15.18;;
78783;SDS011;68127;51.050;14.084;2023-05-27T07:08:20;124.82;;;26.48;;
78783;SDS011;68127;51.050;14.084;2023-05-27T07:10:51;39.65;;;9.48;;
78783;SDS011;68127;51.050;14.084;2023-05-27T07:13:40;18.52;;;4.38;;
78783;SDS011;68127;51.050;14.084;2023-05-27T07:16:08;29.08;;;6.90;;
78783;SDS011;68127;51.050;14.084;2023-05-27T07:18:36;41.83;;;10.02;;
78783;SDS011;68127;51.050;14.084;2023-05-27T07:21:01;15.63;;;4.82;;
78783;SDS011;68127;51.050;14.084;2023-05-27T07:23:26;11.70;;;3.40;;
78783;SDS011;68127;51.050;14.084;2023-05-27T07:25:52;16.52;;;3.78;;
78783;SDS011;68127;51.050;14.084;2023-05-27T07:28:17;12.68;;;3.42;;
78783;SDS011;68127;51.050;14.084;2023-05-27T07:30:42;13.35;;;2.92;;
78783;SDS011;68127;51.050;14.084;2023-05-27T07:33:08;12.32;;;3.30;;
78783;SDS011;68127;51.050;14.084;2023-05-27T07:35:33;14.95;;;4.18;;
78783;SDS011;68127;51.050;14.084;2023-05-27T07:37:58;10.52;;;2.72;;
78783;SDS011;68127;51.050;14.084;2023-05-27T07:40:24;10.43;;;3.22;;
78783;SDS011;68127;51.050;14.084;2023-05-27T07:42:49;13.25;;;3.47;;
78783;SDS011;68127;51.050;14.084;2023-05-27T07:45:14;13.30;;;3.20;;
78783;SDS011;68127;51.050;14.084;2023-05-27T07:47:40;10.20;;;3.47;;
78783;SDS011;68127;51.050;14.084;2023-05-27T07:50:06;11.15;;;3.30;;
78783;SDS011;68127;51.050;14.084;2023-05-27T07:52:31;11.93;;;3.40;;
78783;SDS011;68127;51.050;14.084;2023-05-27T07:54:57;14.52;;;3.20;;
78783;SDS011;68127;51.050;14.084;2023-05-27T07:57:22;10.95;;;3.13;;
78783;SDS011;68127;51.050;14.084;2023-05-27T07:59:48;12.00;;;3.05;;
78783;SDS011;68127;51.050;14.084;2023-05-27T08:02:13;15.52;;;4.75;;
78783;SDS011;68127;51.050;14.084;2023-05-27T08:04:38;9.98;;;3.10;;
78783;SDS011;68127;51.050;14.084;2023-05-27T08:07:04;10.60;;;3.63;;
78783;SDS011;68127;51.050;14.084;2023-05-27T08:09:29;10.20;;;3.53;;
78783;SDS011;68127;51.050;14.084;2023-05-27T08:11:57;10.00;;;2.83;;
78783;SDS011;68127;51.050;14.084;2023-05-27T08:14:23;8.05;;;2.90;;
78783;SDS011;68127;51.050;14.084;2023-05-27T08:16:52;8.55;;;2.72;;
78783;SDS011;68127;51.050;14.084;2023-05-27T08:19:17;11.00;;;3.03;;
78783;SDS011;68127;51.050;14.084;2023-05-27T08:21:43;10.23;;;3.70;;
78783;SDS011;68127;51.050;14.084;2023-05-27T08:24:08;13.40;;;3.38;;
78783;SDS011;68127;51.050;14.084;2023-05-27T08:26:33;10.80;;;3.08;;
78783;SDS011;68127;51.050;14.084;2023-05-27T08:28:58;15.70;;;3.40;;
78783;SDS011;68127;51.050;14.084;2023-05-27T08:31:24;13.55;;;3.47;;
78783;SDS011;68127;51.050;14.084;2023-05-27T08:33:49;11.85;;;3.00;;
78783;SDS011;68127;51.050;14.084;2023-05-27T08:36:14;9.45;;;3.20;;
78783;SDS011;68127;51.050;14.084;2023-05-27T08:38:41;13.27;;;3.85;;
78783;SDS011;68127;51.050;14.084;2023-05-27T08:41:06;8.52;;;3.15;;
78783;SDS011;68127;51.050;14.084;2023-05-27T08:43:32;13.60;;;2.95;;
78783;SDS011;68127;51.050;14.084;2023-05-27T08:45:59;9.45;;;2.58;;
78783;SDS011;68127;51.050;14.084;2023-05-27T08:48:25;11.15;;;3.08;;
78783;SDS011;68127;51.050;14.084;2023-05-27T08:50:51;6.47;;;2.63;;
78783;SDS011;68127;51.050;14.084;2023-05-27T08:53:17;9.20;;;2.78;;
78783;SDS011;68127;51.050;14.084;2023-05-27T08:55:42;13.82;;;2.92;;
78783;SDS011;68127;51.050;14.084;2023-05-27T08:58:08;8.82;;;2.88;;
78783;SDS011;68127;51.050;14.084;2023-05-27T09:00:34;10.60;;;2.78;;
78783;SDS011;68127;51.050;14.084;2023-05-27T09:02:59;11.00;;;2.78;;
78783;SDS011;68127;51.050;14.084;2023-05-27T09:05:25;10.98;;;3.33;;
78783;SDS011;68127;51.050;14.084;2023-05-27T09:07:50;10.98;;;2.65;;
78783;SDS011;68127;51.050;14.084;2023-05-27T09:10:16;12.02;;;3.47;;
78783;SDS011;68127;51.050;14.084;2023-05-27T09:12:42;9.02;;;3.10;;
78783;SDS011;68127;51.050;14.084;2023-05-27T09:15:09;7.97;;;3.00;;
78783;SDS011;68127;51.050;14.084;2023-05-27T09:17:39;9.65;;;3.00;;
78783;SDS011;68127;51.050;14.084;2023-05-27T09:20:08;9.03;;;3.27;;
78783;SDS011;68127;51.050;14.084;2023-05-27T09:22:34;8.40;;;2.60;;
78783;SDS011;68127;51.050;14.084;2023-05-27T09:24:59;6.85;;;2.65;;
78783;SDS011;68127;51.050;14.084;2023-05-27T09:27:28;12.55;;;3.10;;
78783;SDS011;68127;51.050;14.084;2023-05-27T09:29:54;11.18;;;3.17;;
78783;SDS011;68127;51.050;14.084;2023-05-27T09:32:24;10.32;;;3.13;;
78783;SDS011;68127;51.050;14.084;2023-05-27T09:34:50;10.13;;;3.10;;
78783;SDS011;68127;51.050;14.084;2023-05-27T09:37:16;10.52;;;2.88;;
78783;SDS011;68127;51.050;14.084;2023-05-27T09:39:42;11.70;;;3.47;;
78783;SDS011;68127;51.050;14.084;2023-05-27T09:42:07;13.98;;;3.20;;
78783;SDS011;68127;51.050;14.084;2023-05-27T09:44:36;8.18;;;2.70;;
78783;SDS011;68127;51.050;14.084;2023-05-27T09:47:05;9.80;;;3.08;;
78783;SDS011;68127;51.050;14.084;2023-05-27T09:49:32;8.13;;;3.35;;
78783;SDS011;68127;51.050;14.084;2023-05-27T09:52:00;10.32;;;3.22;;
78783;SDS011;68127;51.050;14.084;2023-05-27T09:54:26;7.60;;;2.88;;
78783;SDS011;68127;51.050;14.084;2023-05-27T09:56:51;9.27;;;3.17;;
78783;SDS011;68127;51.050;14.084;2023-05-27T09:59:16;10.93;;;2.95;;
78783;SDS011;68127;51.050;14.084;2023-05-27T10:01:42;9.32;;;3.15;;
78783;SDS011;68127;51.050;14.084;2023-05-27T10:04:10;9.57;;;3.55;;
78783;SDS011;68127;51.050;14.084;2023-05-27T10:06:36;11.60;;;3.35;;
78783;SDS011;68127;51.050;14.084;2023-05-27T10:09:02;9.10;;;3.40;;
78783;SDS011;68127;51.050;14.084;2023-05-27T10:11:31;10.63;;;3.40;;
78783;SDS011;68127;51.050;14.084;2023-05-27T10:13:56;13.55;;;5.25;;
78783;SDS011;68127;51.050;14.084;2023-05-27T10:16:22;8.82;;;3.35;;
78783;SDS011;68127;51.050;14.084;2023-05-27T10:18:48;11.88;;;2.78;;
78783;SDS011;68127;51.050;14.084;2023-05-27T10:21:23;9.88;;;3.25;;
78783;SDS011;68127;51.050;14.084;2023-05-27T10:23:59;10.95;;;2.95;;
78783;SDS011;68127;51.050;14.084;2023-05-27T10:26:36;9.15;;;3.10;;
78783;SDS011;68127;51.050;14.084;2023-05-27T10:29:05;10.45;;;3.13;;
78783;SDS011;68127;51.050;14.084;2023-05-27T10:31:32;8.15;;;3.30;;
78783;SDS011;68127;51.050;14.084;2023-05-27T10:33:58;9.20;;;3.22;;
78783;SDS011;68127;51.050;14.084;2023-05-27T10:36:25;9.68;;;3.35;;
78783;SDS011;68127;51.050;14.084;2023-05-27T10:38:58;10.77;;;3.40;;
78783;SDS011;68127;51.050;14.084;2023-05-27T10:41:25;10.52;;;2.80;;
78783;SDS011;68127;51.050;14.084;2023-05-27T10:43:55;7.28;;;2.78;;
78783;SDS011;68127;51.050;14.084;2023-05-27T10:46:21;12.13;;;3.17;;
78783;SDS011;68127;51.050;14.084;2023-05-27T10:51:47;12.63;;;6.28;;
78783;SDS011;68127;51.050;14.084;2023-05-27T10:54:13;11.98;;;4.28;;
78783;SDS011;68127;51.050;14.084;2023-05-27T10:56:49;14.07;;;4.32;;
78783;SDS011;68127;51.050;14.084;2023-05-27T10:59:20;9.48;;;2.97;;
78783;SDS011;68127;51.050;14.084;2023-05-27T11:01:48;13.55;;;3.30;;
78783;SDS011;68127;51.050;14.084;2023-05-27T11:04:16;7.10;;;2.90;;
78783;SDS011;68127;51.050;14.084;2023-05-27T11:06:41;7.78;;;3.03;;
78783;SDS011;68127;51.050;14.084;2023-05-27T11:09:07;9.50;;;2.97;;
78783;SDS011;68127;51.050;14.084;2023-05-27T11:11:32;11.02;;;3.22;;
78783;SDS011;68127;51.050;14.084;2023-05-27T11:13:57;11.38;;;3.35;;
78783;SDS011;68127;51.050;14.084;2023-05-27T11:16:22;9.55;;;3.15;;
78783;SDS011;68127;51.050;14.084;2023-05-27T11:18:48;13.75;;;3.60;;
78783;SDS011;68127;51.050;14.084;2023-05-27T11:21:14;11.32;;;3.17;;
78783;SDS011;68127;51.050;14.084;2023-05-27T11:23:47;7.13;;;2.83;;
78783;SDS011;68127;51.050;14.084;2023-05-27T11:26:17;7.00;;;3.05;;
78783;SDS011;68127;51.050;14.084;2023-05-27T11:28:48;10.82;;;3.08;;
78783;SDS011;68127;51.050;14.084;2023-05-27T11:31:18;7.57;;;2.83;;
78783;SDS011;68127;51.050;14.084;2023-05-27T11:33:45;8.30;;;3.00;;
78783;SDS011;68127;51.050;14.084;2023-05-27T11:36:12;7.38;;;2.85;;
78783;SDS011;68127;51.050;14.084;2023-05-27T11:38:48;8.45;;;2.95;;
78783;SDS011;68127;51.050;14.084;2023-05-27T11:41:21;8.63;;;3.20;;
78783;SDS011;68127;51.050;14.084;2023-05-27T11:44:06;10.55;;;3.15;;
78783;SDS011;68127;51.050;14.084;2023-05-27T11:46:38;9.32;;;3.25;;
78783;SDS011;68127;51.050;14.084;2023-05-27T11:49:06;10.80;;;3.20;;
78783;SDS011;68127;51.050;14.084;2023-05-27T11:51:39;11.43;;;3.50;;
78783;SDS011;68127;51.050;14.084;2023-05-27T11:54:05;8.30;;;3.15;;
78783;SDS011;68127;51.050;14.084;2023-05-27T11:56:31;8.77;;;3.40;;
78783;SDS011;68127;51.050;14.084;2023-05-27T11:58:56;9.43;;;3.38;;
78783;SDS011;68127;51.050;14.084;2023-05-27T12:01:22;9.63;;;3.17;;
78783;SDS011;68127;51.050;14.084;2023-05-27T12:03:47;6.78;;;2.83;;
78783;SDS011;68127;51.050;14.084;2023-05-27T12:06:13;9.00;;;3.00;;
78783;SDS011;68127;51.050;14.084;2023-05-27T12:08:38;8.57;;;3.25;;
78783;SDS011;68127;51.050;14.084;2023-05-27T12:11:03;8.57;;;3.20;;
78783;SDS011;68127;51.050;14.084;2023-05-27T12:13:29;9.30;;;2.92;;
78783;SDS011;68127;51.050;14.084;2023-05-27T12:15:56;7.00;;;3.00;;
78783;SDS011;68127;51.050;14.084;2023-05-27T12:18:21;6.90;;;2.88;;
78783;SDS011;68127;51.050;14.084;2023-05-27T12:20:48;8.82;;;3.30;;
78783;SDS011;68127;51.050;14.084;2023-05-27T12:23:13;11.25;;;3.10;;
78783;SDS011;68127;51.050;14.084;2023-05-27T12:25:38;7.43;;;3.00;;
78783;SDS011;68127;51.050;14.084;2023-05-27T12:28:05;6.97;;;2.88;;
78783;SDS011;68127;51.050;14.084;2023-05-27T12:30:34;9.20;;;2.95;;
78783;SDS011;68127;51.050;14.084;2023-05-27T12:33:01;8.20;;;2.70;;
78783;SDS011;68127;51.050;14.084;2023-05-27T12:35:30;7.40;;;2.92;;
78783;SDS011;68127;51.050;14.084;2023-05-27T12:37:56;9.65;;;3.33;;
78783;SDS011;68127;51.050;14.084;2023-05-27T12:40:21;7.80;;;3.03;;
78783;SDS011;68127;51.050;14.084;2023-05-27T12:42:47;10.75;;;3.00;;
78783;SDS011;68127;51.050;14.084;2023-05-27T12:45:13;5.85;;;2.63;;
78783;SDS011;68127;51.050;14.084;2023-05-27T12:47:38;7.40;;;2.95;;
78783;SDS011;68127;51.050;14.084;2023-05-27T12:50:03;7.53;;;3.03;;
78783;SDS011;68127;51.050;14.084;2023-05-27T12:52:29;7.75;;;3.30;;
78783;SDS011;68127;51.050;14.084;2023-05-27T12:54:54;10.60;;;3.10;;
78783;SDS011;68127;51.050;14.084;2023-05-27T12:57:20;8.05;;;3.00;;
78783;SDS011;68127;51.050;14.084;2023-05-27T12:59:45;7.65;;;2.75;;
78783;SDS011;68127;51.050;14.084;2023-05-27T13:02:10;8.10;;;2.92;;
78783;SDS011;68127;51.050;14.084;2023-05-27T13:04:36;7.35;;;3.03;;
78783;SDS011;68127;51.050;14.084;2023-05-27T13:07:01;11.30;;;3.63;;
78783;SDS011;68127;51.050;14.084;2023-05-27T13:09:26;7.57;;;2.88;;
78783;SDS011;68127;51.050;14.084;2023-05-27T13:11:52;5.75;;;2.97;;
78783;SDS011;68127;51.050;14.084;2023-05-27T13:14:17;8.63;;;3.40;;
78783;SDS011;68127;51.050;14.084;2023-05-27T13:16:42;7.90;;;3.00;;
78783;SDS011;68127;51.050;14.084;2023-05-27T13:19:08;7.90;;;3.25;;
78783;SDS011;68127;51.050;14.084;2023-05-27T13:21:35;7.93;;;3.20;;
78783;SDS011;68127;51.050;14.084;2023-05-27T13:24:00;8.77;;;3.35;;
78783;SDS011;68127;51.050;14.084;2023-05-27T13:26:26;6.55;;;2.70;;
78783;SDS011;68127;51.050;14.084;2023-05-27T13:28:53;7.32;;;3.10;;
78783;SDS011;68127;51.050;14.084;2023-05-27T13:31:19;6.78;;;2.85;;
78783;SDS011;68127;51.050;14.084;2023-05-27T13:33:44;6.40;;;2.78;;
78783;SDS011;68127;51.050;14.084;2023-05-27T13:36:10;8.15;;;3.00;;
78783;SDS011;68127;51.050;14.084;2023-05-27T13:38:35;8.98;;;3.47;;
78783;SDS011;68127;51.050;14.084;2023-05-27T13:41:01;8.27;;;3.50;;
78783;SDS011;68127;51.050;14.084;2023-05-27T13:43:27;7.63;;;3.15;;
78783;SDS011;68127;51.050;14.084;2023-05-27T13:45:52;7.13;;;3.28;;
78783;SDS011;68127;51.050;14.084;2023-05-27T13:48:17;7.00;;;3.00;;
78783;SDS011;68127;51.050;14.084;2023-05-27T13:50:43;9.88;;;3.47;;
78783;SDS011;68127;51.050;14.084;2023-05-27T13:53:08;8.18;;;3.60;;
78783;SDS011;68127;51.050;14.084;2023-05-27T13:55:33;7.35;;;2.88;;
78783;SDS011;68127;51.050;14.084;2023-05-27T13:57:59;8.65;;;2.90;;
78783;SDS011;68127;51.050;14.084;2023-05-27T14:00:24;9.90;;;3.30;;
78783;SDS011;68127;51.050;14.084;2023-05-27T14:02:49;9.20;;;3.58;;
78783;SDS011;68127;51.050;14.084;2023-05-27T14:05:15;6.88;;;3.13;;
78783;SDS011;68127;51.050;14.084;2023-05-27T14:07:40;9.18;;;3.05;;
78783;SDS011;68127;51.050;14.084;2023-05-27T14:10:07;8.95;;;3.17;;
78783;SDS011;68127;51.050;14.084;2023-05-27T14:12:33;7.60;;;3.05;;
78783;SDS011;68127;51.050;14.084;2023-05-27T14:14:58;7.93;;;3.10;;
78783;SDS011;68127;51.050;14.084;2023-05-27T14:17:23;6.35;;;3.22;;
78783;SDS011;68127;51.050;14.084;2023-05-27T14:19:49;9.07;;;3.20;;
78783;SDS011;68127;51.050;14.084;2023-05-27T14:22:14;6.97;;;2.92;;
78783;SDS011;68127;51.050;14.084;2023-05-27T14:24:40;9.05;;;3.85;;
78783;SDS011;68127;51.050;14.084;2023-05-27T14:27:05;8.38;;;3.72;;